sensor_id;sensor_type;location;lat;lon;timestamp;P1;durP1;ratioP1;P2;durP2;ratioP2
74213;SDS011;62576;55.694;37.494;2022-09-09T00:01:28;10.00;;;4.28;;
74213;SDS011;62576;55.694;37.494;2022-09-09T00:04:05;5.18;;;2.70;;
74213;SDS011;62576;55.694;37.494;2022-09-09T00:06:43;4.57;;;2.30;;
74213;SDS011;62576;55.694;37.494;2022-09-09T00:09:19;7.50;;;2.50;;
74213;SDS011;62576;55.694;37.494;2022-09-09T00:11:54;6.60;;;2.10;;
74213;SDS011;62576;55.694;37.494;2022-09-09T00:14:35;4.07;;;1.90;;
74213;SDS011;62576;55.694;37.494;2022-09-09T00:17:12;3.75;;;1.83;;
74213;SDS011;62576;55.694;37.494;2022-09-09T00:19:48;5.25;;;1.77;;
74213;SDS011;62576;55.694;37.494;2022-09-09T00:22:27;3.50;;;1.83;;
74213;SDS011;62576;55.694;37.494;2022-09-09T00:25:02;2.97;;;1.95;;
74213;SDS011;62576;55.694;37.494;2022-09-09T00:27:40;4.45;;;1.85;;
74213;SDS011;62576;55.694;37.494;2022-09-09T00:30:16;5.47;;;2.10;;
74213;SDS011;62576;55.694;37.494;2022-09-09T00:32:50;5.65;;;2.17;;
74213;SDS011;62576;55.694;37.494;2022-09-09T00:35:27;8.82;;;2.30;;
74213;SDS011;62576;55.694;37.494;2022-09-09T00:38:01;6.53;;;2.10;;
74213;SDS011;62576;55.694;37.494;2022-09-09T00:40:39;3.80;;;1.92;;
74213;SDS011;62576;55.694;37.494;2022-09-09T00:43:26;4.15;;;2.15;;
74213;SDS011;62576;55.694;37.494;2022-09-09T00:48:54;3.88;;;2.17;;
74213;SDS011;62576;55.694;37.494;2022-09-09T00:51:36;4.18;;;2.03;;
74213;SDS011;62576;55.694;37.494;2022-09-09T00:57:22;6.78;;;2.33;;
74213;SDS011;62576;55.694;37.494;2022-09-09T00:59:57;6.22;;;2.05;;
74213;SDS011;62576;55.694;37.494;2022-09-09T01:02:49;4.40;;;2.03;;
74213;SDS011;62576;55.694;37.494;2022-09-09T01:05:33;5.18;;;2.00;;
74213;SDS011;62576;55.694;37.494;2022-09-09T01:08:11;5.10;;;2.10;;
74213;SDS011;62576;55.694;37.494;2022-09-09T01:10:50;4.05;;;2.00;;
74213;SDS011;62576;55.694;37.494;2022-09-09T01:13:22;4.93;;;2.15;;
74213;SDS011;62576;55.694;37.494;2022-09-09T01:15:54;2.92;;;1.77;;
74213;SDS011;62576;55.694;37.494;2022-09-09T01:18:27;6.60;;;2.60;;
74213;SDS011;62576;55.694;37.494;2022-09-09T01:21:04;9.52;;;2.67;;
74213;SDS011;62576;55.694;37.494;2022-09-09T01:23:59;4.00;;;2.20;;
74213;SDS011;62576;55.694;37.494;2022-09-09T01:29:13;4.43;;;2.45;;
74213;SDS011;62576;55.694;37.494;2022-09-09T01:31:51;4.75;;;2.40;;
74213;SDS011;62576;55.694;37.494;2022-09-09T01:34:24;5.70;;;2.55;;
74213;SDS011;62576;55.694;37.494;2022-09-09T01:36:57;6.47;;;2.35;;
74213;SDS011;62576;55.694;37.494;2022-09-09T01:39:30;5.20;;;2.53;;
74213;SDS011;62576;55.694;37.494;2022-09-09T01:42:03;10.63;;;2.72;;
74213;SDS011;62576;55.694;37.494;2022-09-09T01:44:36;5.25;;;3.20;;
74213;SDS011;62576;55.694;37.494;2022-09-09T01:47:06;5.35;;;2.53;;
74213;SDS011;62576;55.694;37.494;2022-09-09T01:49:33;4.50;;;2.60;;
74213;SDS011;62576;55.694;37.494;2022-09-09T01:52:06;4.00;;;2.47;;
74213;SDS011;62576;55.694;37.494;2022-09-09T01:54:37;6.20;;;2.88;;
74213;SDS011;62576;55.694;37.494;2022-09-09T01:57:11;6.55;;;3.20;;
74213;SDS011;62576;55.694;37.494;2022-09-09T01:59:49;7.95;;;3.00;;
74213;SDS011;62576;55.694;37.494;2022-09-09T02:02:30;7.53;;;2.83;;
74213;SDS011;62576;55.694;37.494;2022-09-09T02:05:07;5.88;;;2.55;;
74213;SDS011;62576;55.694;37.494;2022-09-09T02:07:46;5.93;;;2.85;;
74213;SDS011;62576;55.694;37.494;2022-09-09T02:10:19;7.32;;;2.70;;
74213;SDS011;62576;55.694;37.494;2022-09-09T02:12:53;5.13;;;2.67;;
74213;SDS011;62576;55.694;37.494;2022-09-09T02:15:30;8.27;;;2.72;;
74213;SDS011;62576;55.694;37.494;2022-09-09T02:18:03;5.90;;;2.70;;
74213;SDS011;62576;55.694;37.494;2022-09-09T02:20:37;5.28;;;2.60;;
74213;SDS011;62576;55.694;37.494;2022-09-09T02:23:08;4.93;;;2.63;;
74213;SDS011;62576;55.694;37.494;2022-09-09T02:25:40;5.88;;;2.80;;
74213;SDS011;62576;55.694;37.494;2022-09-09T02:28:13;6.10;;;2.70;;
74213;SDS011;62576;55.694;37.494;2022-09-09T02:30:46;6.28;;;2.60;;
74213;SDS011;62576;55.694;37.494;2022-09-09T02:33:23;5.15;;;2.58;;
74213;SDS011;62576;55.694;37.494;2022-09-09T02:35:56;7.70;;;2.83;;
74213;SDS011;62576;55.694;37.494;2022-09-09T02:38:33;5.22;;;2.60;;
74213;SDS011;62576;55.694;37.494;2022-09-09T02:41:08;5.63;;;2.45;;
74213;SDS011;62576;55.694;37.494;2022-09-09T02:43:39;6.10;;;2.80;;
74213;SDS011;62576;55.694;37.494;2022-09-09T02:46:13;5.15;;;2.90;;
74213;SDS011;62576;55.694;37.494;2022-09-09T02:48:57;7.35;;;3.17;;
74213;SDS011;62576;55.694;37.494;2022-09-09T02:51:32;5.55;;;2.83;;
74213;SDS011;62576;55.694;37.494;2022-09-09T02:54:15;4.18;;;2.65;;
74213;SDS011;62576;55.694;37.494;2022-09-09T02:56:49;4.90;;;2.60;;
74213;SDS011;62576;55.694;37.494;2022-09-09T02:59:24;5.43;;;2.72;;
74213;SDS011;62576;55.694;37.494;2022-09-09T03:01:55;10.90;;;3.17;;
74213;SDS011;62576;55.694;37.494;2022-09-09T03:04:25;5.10;;;2.80;;
74213;SDS011;62576;55.694;37.494;2022-09-09T03:06:55;6.60;;;2.75;;
74213;SDS011;62576;55.694;37.494;2022-09-09T03:09:25;8.95;;;2.80;;
74213;SDS011;62576;55.694;37.494;2022-09-09T03:11:55;5.43;;;2.40;;
74213;SDS011;62576;55.694;37.494;2022-09-09T03:14:26;4.13;;;2.28;;
74213;SDS011;62576;55.694;37.494;2022-09-09T03:16:56;4.57;;;2.60;;
74213;SDS011;62576;55.694;37.494;2022-09-09T03:19:28;4.30;;;2.53;;
74213;SDS011;62576;55.694;37.494;2022-09-09T03:21:59;5.20;;;2.28;;
74213;SDS011;62576;55.694;37.494;2022-09-09T03:24:29;4.40;;;2.50;;
74213;SDS011;62576;55.694;37.494;2022-09-09T03:26:59;5.32;;;2.40;;
74213;SDS011;62576;55.694;37.494;2022-09-09T03:29:30;4.85;;;2.70;;
74213;SDS011;62576;55.694;37.494;2022-09-09T03:32:01;4.45;;;2.30;;
74213;SDS011;62576;55.694;37.494;2022-09-09T03:34:31;6.82;;;2.47;;
74213;SDS011;62576;55.694;37.494;2022-09-09T03:37:01;6.53;;;2.90;;
74213;SDS011;62576;55.694;37.494;2022-09-09T03:39:32;5.22;;;2.63;;
74213;SDS011;62576;55.694;37.494;2022-09-09T03:42:02;6.68;;;2.83;;
74213;SDS011;62576;55.694;37.494;2022-09-09T03:44:35;6.68;;;2.70;;
74213;SDS011;62576;55.694;37.494;2022-09-09T03:47:05;5.78;;;2.30;;
74213;SDS011;62576;55.694;37.494;2022-09-09T03:49:32;4.82;;;2.72;;
74213;SDS011;62576;55.694;37.494;2022-09-09T03:52:02;5.35;;;2.83;;
74213;SDS011;62576;55.694;37.494;2022-09-09T03:54:32;8.57;;;2.72;;
74213;SDS011;62576;55.694;37.494;2022-09-09T03:57:02;4.90;;;2.42;;
74213;SDS011;62576;55.694;37.494;2022-09-09T03:59:32;6.85;;;2.42;;
74213;SDS011;62576;55.694;37.494;2022-09-09T04:02:04;4.90;;;2.70;;
74213;SDS011;62576;55.694;37.494;2022-09-09T04:04:34;5.38;;;2.47;;
74213;SDS011;62576;55.694;37.494;2022-09-09T04:07:04;5.45;;;2.72;;
74213;SDS011;62576;55.694;37.494;2022-09-09T04:09:35;10.68;;;2.70;;
74213;SDS011;62576;55.694;37.494;2022-09-09T04:12:05;7.20;;;2.70;;
74213;SDS011;62576;55.694;37.494;2022-09-09T04:14:35;6.30;;;3.13;;
74213;SDS011;62576;55.694;37.494;2022-09-09T04:17:06;8.32;;;2.85;;
74213;SDS011;62576;55.694;37.494;2022-09-09T04:19:36;7.00;;;2.80;;
74213;SDS011;62576;55.694;37.494;2022-09-09T04:22:03;5.88;;;2.80;;
74213;SDS011;62576;55.694;37.494;2022-09-09T04:24:33;10.18;;;4.38;;
74213;SDS011;62576;55.694;37.494;2022-09-09T04:27:03;6.28;;;3.30;;
74213;SDS011;62576;55.694;37.494;2022-09-09T04:29:33;5.20;;;2.50;;
74213;SDS011;62576;55.694;37.494;2022-09-09T04:32:03;5.95;;;2.53;;
74213;SDS011;62576;55.694;37.494;2022-09-09T04:34:34;4.50;;;2.35;;
74213;SDS011;62576;55.694;37.494;2022-09-09T04:37:04;5.68;;;2.83;;
74213;SDS011;62576;55.694;37.494;2022-09-09T04:39:34;4.03;;;2.47;;
74213;SDS011;62576;55.694;37.494;2022-09-09T04:42:13;6.03;;;2.50;;
74213;SDS011;62576;55.694;37.494;2022-09-09T04:44:43;6.38;;;2.58;;
74213;SDS011;62576;55.694;37.494;2022-09-09T04:47:13;4.72;;;2.45;;
74213;SDS011;62576;55.694;37.494;2022-09-09T04:49:41;5.75;;;2.75;;
74213;SDS011;62576;55.694;37.494;2022-09-09T04:52:11;7.07;;;3.22;;
74213;SDS011;62576;55.694;37.494;2022-09-09T04:54:41;7.68;;;3.60;;
74213;SDS011;62576;55.694;37.494;2022-09-09T04:57:12;6.22;;;2.60;;
74213;SDS011;62576;55.694;37.494;2022-09-09T04:59:42;5.32;;;2.60;;
74213;SDS011;62576;55.694;37.494;2022-09-09T05:02:12;9.35;;;3.38;;
74213;SDS011;62576;55.694;37.494;2022-09-09T05:04:44;8.02;;;2.65;;
74213;SDS011;62576;55.694;37.494;2022-09-09T05:07:14;7.82;;;2.80;;
74213;SDS011;62576;55.694;37.494;2022-09-09T05:09:43;5.63;;;2.60;;
74213;SDS011;62576;55.694;37.494;2022-09-09T05:12:15;6.18;;;2.65;;
74213;SDS011;62576;55.694;37.494;2022-09-09T05:14:45;6.32;;;2.22;;
74213;SDS011;62576;55.694;37.494;2022-09-09T05:17:15;5.18;;;2.28;;
74213;SDS011;62576;55.694;37.494;2022-09-09T05:19:47;8.98;;;3.30;;
74213;SDS011;62576;55.694;37.494;2022-09-09T05:22:18;4.88;;;2.28;;
74213;SDS011;62576;55.694;37.494;2022-09-09T05:24:49;5.05;;;2.60;;
74213;SDS011;62576;55.694;37.494;2022-09-09T05:27:19;5.90;;;2.50;;
74213;SDS011;62576;55.694;37.494;2022-09-09T05:29:49;4.45;;;2.33;;
74213;SDS011;62576;55.694;37.494;2022-09-09T05:32:19;8.82;;;2.55;;
74213;SDS011;62576;55.694;37.494;2022-09-09T05:34:51;3.90;;;2.28;;
74213;SDS011;62576;55.694;37.494;2022-09-09T05:37:20;4.00;;;2.20;;
74213;SDS011;62576;55.694;37.494;2022-09-09T05:39:51;5.65;;;2.20;;
74213;SDS011;62576;55.694;37.494;2022-09-09T05:42:21;8.30;;;2.42;;
74213;SDS011;62576;55.694;37.494;2022-09-09T05:44:53;5.60;;;2.42;;
74213;SDS011;62576;55.694;37.494;2022-09-09T05:47:23;7.40;;;2.70;;
74213;SDS011;62576;55.694;37.494;2022-09-09T05:49:54;5.60;;;2.70;;
74213;SDS011;62576;55.694;37.494;2022-09-09T05:52:24;9.15;;;2.70;;
74213;SDS011;62576;55.694;37.494;2022-09-09T05:54:55;7.72;;;3.03;;
74213;SDS011;62576;55.694;37.494;2022-09-09T05:57:25;18.95;;;7.00;;
74213;SDS011;62576;55.694;37.494;2022-09-09T05:59:56;21.55;;;7.97;;
74213;SDS011;62576;55.694;37.494;2022-09-09T06:02:26;5.72;;;2.40;;
74213;SDS011;62576;55.694;37.494;2022-09-09T06:04:57;6.03;;;2.20;;
74213;SDS011;62576;55.694;37.494;2022-09-09T06:07:27;4.90;;;1.90;;
74213;SDS011;62576;55.694;37.494;2022-09-09T06:09:57;7.82;;;2.00;;
74213;SDS011;62576;55.694;37.494;2022-09-09T06:12:27;5.40;;;2.03;;
74213;SDS011;62576;55.694;37.494;2022-09-09T06:14:57;5.32;;;2.00;;
74213;SDS011;62576;55.694;37.494;2022-09-09T06:17:27;4.53;;;1.90;;
74213;SDS011;62576;55.694;37.494;2022-09-09T06:19:58;5.40;;;1.80;;
74213;SDS011;62576;55.694;37.494;2022-09-09T06:22:28;7.05;;;1.80;;
74213;SDS011;62576;55.694;37.494;2022-09-09T06:25:05;5.97;;;1.65;;
74213;SDS011;62576;55.694;37.494;2022-09-09T06:27:35;8.05;;;2.80;;
74213;SDS011;62576;55.694;37.494;2022-09-09T06:30:06;7.68;;;1.88;;
74213;SDS011;62576;55.694;37.494;2022-09-09T06:32:38;7.32;;;1.90;;
74213;SDS011;62576;55.694;37.494;2022-09-09T06:35:09;5.90;;;1.67;;
74213;SDS011;62576;55.694;37.494;2022-09-09T06:37:36;5.35;;;1.65;;
74213;SDS011;62576;55.694;37.494;2022-09-09T06:40:07;4.55;;;1.75;;
74213;SDS011;62576;55.694;37.494;2022-09-09T06:42:39;9.75;;;3.15;;
74213;SDS011;62576;55.694;37.494;2022-09-09T06:45:09;9.02;;;4.18;;
74213;SDS011;62576;55.694;37.494;2022-09-09T06:47:39;7.30;;;2.78;;
74213;SDS011;62576;55.694;37.494;2022-09-09T06:50:11;6.25;;;2.30;;
74213;SDS011;62576;55.694;37.494;2022-09-09T06:52:42;6.20;;;1.80;;
74213;SDS011;62576;55.694;37.494;2022-09-09T06:55:15;12.35;;;2.15;;
74213;SDS011;62576;55.694;37.494;2022-09-09T06:57:45;5.75;;;1.70;;
74213;SDS011;62576;55.694;37.494;2022-09-09T07:00:16;5.70;;;2.10;;
74213;SDS011;62576;55.694;37.494;2022-09-09T07:02:47;3.13;;;1.70;;
74213;SDS011;62576;55.694;37.494;2022-09-09T07:05:20;8.05;;;2.97;;
74213;SDS011;62576;55.694;37.494;2022-09-09T07:07:50;4.32;;;1.80;;
74213;SDS011;62576;55.694;37.494;2022-09-09T07:10:20;4.38;;;1.70;;
74213;SDS011;62576;55.694;37.494;2022-09-09T07:12:50;3.38;;;1.55;;
74213;SDS011;62576;55.694;37.494;2022-09-09T07:15:21;4.53;;;1.73;;
74213;SDS011;62576;55.694;37.494;2022-09-09T07:17:51;4.13;;;1.70;;
74213;SDS011;62576;55.694;37.494;2022-09-09T07:20:23;4.82;;;1.50;;
74213;SDS011;62576;55.694;37.494;2022-09-09T07:22:54;7.45;;;2.55;;
74213;SDS011;62576;55.694;37.494;2022-09-09T07:25:24;5.45;;;1.90;;
74213;SDS011;62576;55.694;37.494;2022-09-09T07:27:57;3.92;;;1.70;;
74213;SDS011;62576;55.694;37.494;2022-09-09T07:30:27;2.13;;;1.40;;
74213;SDS011;62576;55.694;37.494;2022-09-09T07:32:57;12.25;;;1.63;;
74213;SDS011;62576;55.694;37.494;2022-09-09T07:35:28;12.05;;;1.50;;
74213;SDS011;62576;55.694;37.494;2022-09-09T07:38:00;5.03;;;2.00;;
74213;SDS011;62576;55.694;37.494;2022-09-09T07:40:30;7.93;;;2.55;;
74213;SDS011;62576;55.694;37.494;2022-09-09T07:43:00;2.95;;;1.40;;
74213;SDS011;62576;55.694;37.494;2022-09-09T07:45:30;7.32;;;1.83;;
74213;SDS011;62576;55.694;37.494;2022-09-09T07:48:01;4.22;;;1.95;;
74213;SDS011;62576;55.694;37.494;2022-09-09T07:50:32;3.50;;;1.70;;
74213;SDS011;62576;55.694;37.494;2022-09-09T07:53:02;3.78;;;1.50;;
74213;SDS011;62576;55.694;37.494;2022-09-09T07:55:34;4.20;;;1.48;;
74213;SDS011;62576;55.694;37.494;2022-09-09T07:58:04;6.35;;;1.63;;
74213;SDS011;62576;55.694;37.494;2022-09-09T08:00:34;4.88;;;1.30;;
74213;SDS011;62576;55.694;37.494;2022-09-09T08:03:04;6.13;;;1.50;;
74213;SDS011;62576;55.694;37.494;2022-09-09T08:05:36;4.18;;;1.20;;
74213;SDS011;62576;55.694;37.494;2022-09-09T08:08:09;5.85;;;1.42;;
74213;SDS011;62576;55.694;37.494;2022-09-09T08:10:39;4.18;;;1.23;;
74213;SDS011;62576;55.694;37.494;2022-09-09T08:13:09;4.63;;;1.48;;
74213;SDS011;62576;55.694;37.494;2022-09-09T08:15:42;3.10;;;1.50;;
74213;SDS011;62576;55.694;37.494;2022-09-09T08:18:12;4.50;;;1.65;;
74213;SDS011;62576;55.694;37.494;2022-09-09T08:20:48;4.28;;;2.00;;
74213;SDS011;62576;55.694;37.494;2022-09-09T08:23:18;4.55;;;1.98;;
74213;SDS011;62576;55.694;37.494;2022-09-09T08:25:48;3.15;;;1.20;;
74213;SDS011;62576;55.694;37.494;2022-09-09T08:28:18;7.32;;;1.90;;
74213;SDS011;62576;55.694;37.494;2022-09-09T08:30:49;7.25;;;3.20;;
74213;SDS011;62576;55.694;37.494;2022-09-09T08:33:21;3.28;;;1.23;;
74213;SDS011;62576;55.694;37.494;2022-09-09T08:35:52;4.13;;;1.20;;
74213;SDS011;62576;55.694;37.494;2022-09-09T08:38:22;3.42;;;1.40;;
74213;SDS011;62576;55.694;37.494;2022-09-09T08:40:52;2.17;;;1.40;;
74213;SDS011;62576;55.694;37.494;2022-09-09T08:43:34;6.30;;;1.50;;
74213;SDS011;62576;55.694;37.494;2022-09-09T08:46:05;2.50;;;1.30;;
74213;SDS011;62576;55.694;37.494;2022-09-09T08:48:44;7.15;;;1.92;;
74213;SDS011;62576;55.694;37.494;2022-09-09T08:51:26;2.83;;;1.35;;
74213;SDS011;62576;55.694;37.494;2022-09-09T08:53:59;3.42;;;1.60;;
74213;SDS011;62576;55.694;37.494;2022-09-09T08:56:32;2.95;;;1.20;;
74213;SDS011;62576;55.694;37.494;2022-09-09T08:59:03;3.17;;;1.50;;
74213;SDS011;62576;55.694;37.494;2022-09-09T09:04:29;3.67;;;1.35;;
74213;SDS011;62576;55.694;37.494;2022-09-09T09:07:21;4.28;;;1.90;;
74213;SDS011;62576;55.694;37.494;2022-09-09T09:10:02;5.30;;;1.50;;
74213;SDS011;62576;55.694;37.494;2022-09-09T09:12:40;1.70;;;1.10;;
74213;SDS011;62576;55.694;37.494;2022-09-09T09:15:14;3.10;;;1.30;;
74213;SDS011;62576;55.694;37.494;2022-09-09T09:17:49;3.50;;;1.60;;
74213;SDS011;62576;55.694;37.494;2022-09-09T09:20:21;3.63;;;1.35;;
74213;SDS011;62576;55.694;37.494;2022-09-09T09:23:01;4.07;;;1.58;;
74213;SDS011;62576;55.694;37.494;2022-09-09T09:25:38;4.60;;;1.95;;
74213;SDS011;62576;55.694;37.494;2022-09-09T09:28:12;2.95;;;1.25;;
74213;SDS011;62576;55.694;37.494;2022-09-09T09:30:47;1.60;;;1.10;;
74213;SDS011;62576;55.694;37.494;2022-09-09T09:33:21;4.13;;;1.27;;
74213;SDS011;62576;55.694;37.494;2022-09-09T09:35:56;3.90;;;1.23;;
74213;SDS011;62576;55.694;37.494;2022-09-09T09:38:29;2.92;;;1.90;;
74213;SDS011;62576;55.694;37.494;2022-09-09T09:40:59;2.58;;;1.20;;
74213;SDS011;62576;55.694;37.494;2022-09-09T09:43:30;2.33;;;1.30;;
74213;SDS011;62576;55.694;37.494;2022-09-09T09:46:03;1.63;;;1.30;;
74213;SDS011;62576;55.694;37.494;2022-09-09T09:48:34;3.58;;;1.30;;
74213;SDS011;62576;55.694;37.494;2022-09-09T09:51:05;1.63;;;1.17;;
74213;SDS011;62576;55.694;37.494;2022-09-09T09:53:40;4.07;;;1.45;;
74213;SDS011;62576;55.694;37.494;2022-09-09T09:56:10;3.75;;;1.20;;
74213;SDS011;62576;55.694;37.494;2022-09-09T09:58:48;2.42;;;1.75;;
74213;SDS011;62576;55.694;37.494;2022-09-09T10:01:20;4.18;;;1.40;;
74213;SDS011;62576;55.694;37.494;2022-09-09T10:03:54;3.05;;;1.10;;
74213;SDS011;62576;55.694;37.494;2022-09-09T10:06:30;6.93;;;1.55;;
74213;SDS011;62576;55.694;37.494;2022-09-09T10:09:04;1.85;;;1.30;;
74213;SDS011;62576;55.694;37.494;2022-09-09T10:11:55;2.45;;;1.27;;
74213;SDS011;62576;55.694;37.494;2022-09-09T10:14:33;2.90;;;1.20;;
74213;SDS011;62576;55.694;37.494;2022-09-09T10:17:12;2.53;;;1.23;;
74213;SDS011;62576;55.694;37.494;2022-09-09T10:19:54;2.30;;;1.20;;
74213;SDS011;62576;55.694;37.494;2022-09-09T10:22:43;4.03;;;1.40;;
74213;SDS011;62576;55.694;37.494;2022-09-09T10:25:29;3.35;;;1.67;;
74213;SDS011;62576;55.694;37.494;2022-09-09T10:28:12;3.03;;;1.20;;
74213;SDS011;62576;55.694;37.494;2022-09-09T10:31:01;2.92;;;1.08;;
74213;SDS011;62576;55.694;37.494;2022-09-09T10:33:41;3.60;;;1.15;;
74213;SDS011;62576;55.694;37.494;2022-09-09T10:36:19;1.60;;;1.20;;
74213;SDS011;62576;55.694;37.494;2022-09-09T10:38:52;3.05;;;1.65;;
74213;SDS011;62576;55.694;37.494;2022-09-09T10:41:40;2.47;;;1.45;;
74213;SDS011;62576;55.694;37.494;2022-09-09T10:44:22;3.17;;;1.20;;
74213;SDS011;62576;55.694;37.494;2022-09-09T10:47:10;1.30;;;1.20;;
74213;SDS011;62576;55.694;37.494;2022-09-09T10:49:56;3.45;;;1.55;;
74213;SDS011;62576;55.694;37.494;2022-09-09T10:52:43;4.30;;;2.17;;
74213;SDS011;62576;55.694;37.494;2022-09-09T10:55:20;5.85;;;1.40;;
74213;SDS011;62576;55.694;37.494;2022-09-09T10:57:57;2.85;;;1.67;;
74213;SDS011;62576;55.694;37.494;2022-09-09T11:00:37;1.98;;;1.30;;
74213;SDS011;62576;55.694;37.494;2022-09-09T11:03:17;6.28;;;1.30;;
74213;SDS011;62576;55.694;37.494;2022-09-09T11:05:51;3.80;;;1.50;;
74213;SDS011;62576;55.694;37.494;2022-09-09T11:08:26;2.38;;;1.40;;
74213;SDS011;62576;55.694;37.494;2022-09-09T11:13:34;3.40;;;1.38;;
74213;SDS011;62576;55.694;37.494;2022-09-09T11:16:14;3.85;;;1.33;;
74213;SDS011;62576;55.694;37.494;2022-09-09T11:18:55;4.43;;;1.40;;
74213;SDS011;62576;55.694;37.494;2022-09-09T11:21:31;7.50;;;1.40;;
74213;SDS011;62576;55.694;37.494;2022-09-09T11:24:08;4.20;;;1.98;;
74213;SDS011;62576;55.694;37.494;2022-09-09T11:26:44;2.38;;;1.40;;
74213;SDS011;62576;55.694;37.494;2022-09-09T11:29:24;3.50;;;1.70;;
74213;SDS011;62576;55.694;37.494;2022-09-09T11:32:26;3.85;;;1.45;;
74213;SDS011;62576;55.694;37.494;2022-09-09T11:35:09;3.47;;;1.25;;
74213;SDS011;62576;55.694;37.494;2022-09-09T11:37:56;5.05;;;1.30;;
74213;SDS011;62576;55.694;37.494;2022-09-09T11:40:55;1.57;;;1.10;;
74213;SDS011;62576;55.694;37.494;2022-09-09T11:43:30;2.83;;;1.45;;
74213;SDS011;62576;55.694;37.494;2022-09-09T11:46:04;4.20;;;1.20;;
74213;SDS011;62576;55.694;37.494;2022-09-09T11:48:36;2.35;;;1.25;;
74213;SDS011;62576;55.694;37.494;2022-09-09T11:51:06;1.52;;;1.00;;
74213;SDS011;62576;55.694;37.494;2022-09-09T11:53:47;3.45;;;1.40;;
74213;SDS011;62576;55.694;37.494;2022-09-09T11:59:04;1.88;;;1.30;;
74213;SDS011;62576;55.694;37.494;2022-09-09T12:01:37;2.17;;;1.23;;
74213;SDS011;62576;55.694;37.494;2022-09-09T12:04:12;2.78;;;1.35;;
74213;SDS011;62576;55.694;37.494;2022-09-09T12:06:48;2.35;;;1.10;;
74213;SDS011;62576;55.694;37.494;2022-09-09T12:09:22;1.38;;;1.20;;
74213;SDS011;62576;55.694;37.494;2022-09-09T12:14:58;1.70;;;1.13;;
74213;SDS011;62576;55.694;37.494;2022-09-09T12:17:31;2.88;;;1.10;;
74213;SDS011;62576;55.694;37.494;2022-09-09T12:20:12;1.92;;;1.20;;
74213;SDS011;62576;55.694;37.494;2022-09-09T12:22:47;3.10;;;1.42;;
74213;SDS011;62576;55.694;37.494;2022-09-09T12:25:32;2.33;;;1.05;;
74213;SDS011;62576;55.694;37.494;2022-09-09T12:28:11;4.53;;;1.30;;
74213;SDS011;62576;55.694;37.494;2022-09-09T12:30:49;6.00;;;1.20;;
74213;SDS011;62576;55.694;37.494;2022-09-09T12:33:33;3.85;;;1.23;;
74213;SDS011;62576;55.694;37.494;2022-09-09T12:36:04;4.85;;;1.00;;
74213;SDS011;62576;55.694;37.494;2022-09-09T12:38:38;1.95;;;1.08;;
74213;SDS011;62576;55.694;37.494;2022-09-09T12:41:17;2.63;;;1.08;;
74213;SDS011;62576;55.694;37.494;2022-09-09T12:43:49;2.67;;;1.00;;
74213;SDS011;62576;55.694;37.494;2022-09-09T12:46:27;1.52;;;1.10;;
74213;SDS011;62576;55.694;37.494;2022-09-09T12:49:03;3.35;;;1.20;;
74213;SDS011;62576;55.694;37.494;2022-09-09T12:51:34;3.03;;;1.20;;
74213;SDS011;62576;55.694;37.494;2022-09-09T12:54:05;1.77;;;1.02;;
74213;SDS011;62576;55.694;37.494;2022-09-09T12:56:35;2.47;;;1.10;;
74213;SDS011;62576;55.694;37.494;2022-09-09T12:59:17;1.85;;;1.20;;
74213;SDS011;62576;55.694;37.494;2022-09-09T13:01:56;3.80;;;1.30;;
74213;SDS011;62576;55.694;37.494;2022-09-09T13:04:28;2.92;;;1.25;;
74213;SDS011;62576;55.694;37.494;2022-09-09T13:07:05;3.45;;;1.20;;
74213;SDS011;62576;55.694;37.494;2022-09-09T13:09:38;2.58;;;1.05;;
74213;SDS011;62576;55.694;37.494;2022-09-09T13:12:11;2.17;;;1.30;;
74213;SDS011;62576;55.694;37.494;2022-09-09T13:14:45;2.05;;;1.27;;
74213;SDS011;62576;55.694;37.494;2022-09-09T13:17:18;3.13;;;1.10;;
74213;SDS011;62576;55.694;37.494;2022-09-09T13:19:52;2.70;;;1.20;;
74213;SDS011;62576;55.694;37.494;2022-09-09T13:22:27;2.55;;;1.10;;
74213;SDS011;62576;55.694;37.494;2022-09-09T13:25:02;3.33;;;1.33;;
74213;SDS011;62576;55.694;37.494;2022-09-09T13:27:35;1.65;;;1.00;;
74213;SDS011;62576;55.694;37.494;2022-09-09T13:33:21;2.25;;;1.17;;
74213;SDS011;62576;55.694;37.494;2022-09-09T13:35:54;2.63;;;0.90;;
74213;SDS011;62576;55.694;37.494;2022-09-09T13:38:27;2.97;;;0.90;;
74213;SDS011;62576;55.694;37.494;2022-09-09T13:41:00;1.70;;;1.00;;
74213;SDS011;62576;55.694;37.494;2022-09-09T13:43:34;2.20;;;1.20;;
74213;SDS011;62576;55.694;37.494;2022-09-09T13:46:22;4.82;;;1.33;;
74213;SDS011;62576;55.694;37.494;2022-09-09T13:49:00;1.58;;;1.00;;
74213;SDS011;62576;55.694;37.494;2022-09-09T13:51:36;3.90;;;0.90;;
74213;SDS011;62576;55.694;37.494;2022-09-09T13:54:08;1.75;;;1.10;;
74213;SDS011;62576;55.694;37.494;2022-09-09T13:56:40;2.25;;;1.50;;
74213;SDS011;62576;55.694;37.494;2022-09-09T13:59:12;4.00;;;1.20;;
74213;SDS011;62576;55.694;37.494;2022-09-09T14:01:44;3.80;;;1.35;;
74213;SDS011;62576;55.694;37.494;2022-09-09T14:04:14;4.13;;;1.10;;
74213;SDS011;62576;55.694;37.494;2022-09-09T14:06:46;3.60;;;1.20;;
74213;SDS011;62576;55.694;37.494;2022-09-09T14:09:16;1.55;;;1.00;;
74213;SDS011;62576;55.694;37.494;2022-09-09T14:11:47;3.50;;;1.15;;
74213;SDS011;62576;55.694;37.494;2022-09-09T14:14:17;2.45;;;1.20;;
74213;SDS011;62576;55.694;37.494;2022-09-09T14:16:47;2.05;;;1.23;;
74213;SDS011;62576;55.694;37.494;2022-09-09T14:19:16;4.78;;;1.40;;
74213;SDS011;62576;55.694;37.494;2022-09-09T14:21:50;6.85;;;1.85;;
74213;SDS011;62576;55.694;37.494;2022-09-09T14:24:20;5.18;;;2.45;;
74213;SDS011;62576;55.694;37.494;2022-09-09T14:26:50;7.13;;;2.58;;
74213;SDS011;62576;55.694;37.494;2022-09-09T14:29:20;7.85;;;2.30;;
74213;SDS011;62576;55.694;37.494;2022-09-09T14:31:50;7.25;;;2.15;;
74213;SDS011;62576;55.694;37.494;2022-09-09T14:34:20;7.40;;;2.10;;
74213;SDS011;62576;55.694;37.494;2022-09-09T14:36:55;2.90;;;1.85;;
74213;SDS011;62576;55.694;37.494;2022-09-09T14:39:25;5.97;;;2.20;;
74213;SDS011;62576;55.694;37.494;2022-09-09T14:41:55;8.35;;;2.50;;
74213;SDS011;62576;55.694;37.494;2022-09-09T14:44:26;3.78;;;2.30;;
74213;SDS011;62576;55.694;37.494;2022-09-09T14:46:56;5.45;;;2.20;;
74213;SDS011;62576;55.694;37.494;2022-09-09T14:49:23;5.65;;;2.45;;
74213;SDS011;62576;55.694;37.494;2022-09-09T14:51:54;4.75;;;2.40;;
74213;SDS011;62576;55.694;37.494;2022-09-09T14:54:24;6.15;;;2.72;;
74213;SDS011;62576;55.694;37.494;2022-09-09T14:56:54;7.35;;;2.70;;
74213;SDS011;62576;55.694;37.494;2022-09-09T14:59:25;7.95;;;2.10;;
74213;SDS011;62576;55.694;37.494;2022-09-09T15:01:55;7.97;;;2.40;;
74213;SDS011;62576;55.694;37.494;2022-09-09T15:04:25;5.35;;;2.22;;
74213;SDS011;62576;55.694;37.494;2022-09-09T15:06:57;4.63;;;2.00;;
74213;SDS011;62576;55.694;37.494;2022-09-09T15:09:27;4.72;;;1.92;;
74213;SDS011;62576;55.694;37.494;2022-09-09T15:11:57;5.90;;;1.65;;
74213;SDS011;62576;55.694;37.494;2022-09-09T15:14:28;4.65;;;2.10;;
74213;SDS011;62576;55.694;37.494;2022-09-09T15:16:58;7.35;;;2.10;;
74213;SDS011;62576;55.694;37.494;2022-09-09T15:19:29;6.28;;;2.20;;
74213;SDS011;62576;55.694;37.494;2022-09-09T15:22:04;4.30;;;1.80;;
74213;SDS011;62576;55.694;37.494;2022-09-09T15:24:35;8.55;;;2.10;;
74213;SDS011;62576;55.694;37.494;2022-09-09T15:27:05;6.13;;;1.90;;
74213;SDS011;62576;55.694;37.494;2022-09-09T15:29:35;4.82;;;1.90;;
74213;SDS011;62576;55.694;37.494;2022-09-09T15:32:06;6.82;;;2.00;;
74213;SDS011;62576;55.694;37.494;2022-09-09T15:34:36;4.68;;;1.95;;